PWSweather.com
Personal Weather Stations
Station Observations
DELHOVEN
DormagenDE 41540

DormagenDE 41540

Lat: 51.083, Lon: 6.775

Elevation: 120

Station Type: WH1080

Latest ConditionsUpdated 2:05:51 PM GMT+01:01 Wednesday, Jul 30, 2014
Currently Today's Max Today's Min Today's Average
Temperature 78.4°F25.8°C 78.4°F25.8°C 64.8°F18.2°C 69.4°F20.8°C
Dew Point 58.2°F14.6°C 66.9°F19.4°C 57.1°F13.9°C 63.1°F17.3°C
Winds 5.4 mph W8.7 kmh W 10.7 mph NW17.2 kmh NW - 5.9 mph 9.5 kmh
Wind Gusts 6.0 mph9.7 kmh 15.9 mph25.6 kmh - -
Humidity 50% 95% 50% 82%
Pressure 29.92 in1013.2 mb 29.92 in1013.2 mb 29.82 in1009.8 mb -
Hour Temp Dew Point Humidity Winds Wind Gusts Pressure Precip Precip Rate Daily Precip Total
02:05 PM 78.4°F25.8°C 58.2°F14.6°C 50% 5.4 mph W8.7 kmh W 6.0 mph9.7 kmh 29.92 in1013.2 mb 0.00 in0.0 mm 0.00 in/hr0.0 mm/hr 0.00 in0.0 mm
02:00 PM 78.3°F25.7°C 58.1°F14.5°C 50% 6.9 mph W11.1 kmh W 13.6 mph21.9 kmh 29.91 in1012.9 mb 0.00 in0.0 mm 0.00 in/hr0.0 mm/hr 0.00 in0.0 mm
01:55 PM 78.4°F25.8°C 59.9°F15.5°C 53% 7.6 mph NW12.2 kmh NW 11.4 mph18.3 kmh 29.91 in1012.9 mb 0.00 in0.0 mm 0.00 in/hr0.0 mm/hr 0.00 in0.0 mm
01:50 PM 78.4°F25.8°C 58.8°F14.9°C 51% 4.5 mph W7.2 kmh W 6.9 mph11.1 kmh 29.92 in1013.2 mb 0.00 in0.0 mm 0.00 in/hr0.0 mm/hr 0.00 in0.0 mm
01:45 PM 78.4°F25.8°C 59.9°F15.5°C 53% 6.0 mph 9.7 kmh 8.3 mph13.4 kmh 29.92 in1013.2 mb 0.00 in0.0 mm 0.00 in/hr0.0 mm/hr 0.00 in0.0 mm
01:40 PM 78.1°F25.6°C 59.0°F15.0°C 52% 7.6 mph WNW12.2 kmh WNW 9.8 mph15.8 kmh 29.92 in1013.2 mb 0.00 in0.0 mm 0.00 in/hr0.0 mm/hr 0.00 in0.0 mm
01:35 PM 77.9°F25.5°C 59.9°F15.5°C 54% 6.0 mph 9.7 kmh 9.2 mph14.8 kmh 29.91 in1012.9 mb 0.00 in0.0 mm 0.00 in/hr0.0 mm/hr 0.00 in0.0 mm
01:30 PM 77.0°F25.0°C 58.5°F14.7°C 53% 10.7 mph 17.2 kmh 13.6 mph21.9 kmh 29.91 in1012.9 mb 0.00 in0.0 mm 0.00 in/hr0.0 mm/hr 0.00 in0.0 mm
01:25 PM 77.2°F25.1°C 58.2°F14.6°C 52% 6.9 mph NW11.1 kmh NW 9.2 mph14.8 kmh 29.92 in1013.2 mb 0.00 in0.0 mm 0.00 in/hr0.0 mm/hr 0.00 in0.0 mm
01:20 PM 77.2°F25.1°C 58.7°F14.8°C 53% 6.0 mph NW9.7 kmh NW 8.3 mph13.4 kmh 29.91 in1012.9 mb 0.00 in0.0 mm 0.00 in/hr0.0 mm/hr 0.00 in0.0 mm
01:15 PM 77.4°F25.2°C 57.2°F14.0°C 50% 6.0 mph 9.7 kmh 10.7 mph17.2 kmh 29.91 in1012.9 mb 0.00 in0.0 mm 0.00 in/hr0.0 mm/hr 0.00 in0.0 mm
01:10 PM 77.9°F25.5°C 58.3°F14.6°C 51% 9.8 mph W15.8 kmh W 13.0 mph20.9 kmh 29.91 in1012.9 mb 0.00 in0.0 mm 0.00 in/hr0.0 mm/hr 0.00 in0.0 mm
01:05 PM 77.2°F25.1°C 57.1°F13.9°C 50% 8.3 mph NW13.4 kmh NW 10.7 mph17.2 kmh 29.91 in1012.9 mb 0.00 in0.0 mm 0.00 in/hr0.0 mm/hr 0.00 in0.0 mm
01:00 PM 77.2°F25.1°C 57.1°F13.9°C 50% 8.3 mph NW13.4 kmh NW 10.7 mph17.2 kmh 29.92 in1013.2 mb 0.00 in0.0 mm 0.00 in/hr0.0 mm/hr 0.00 in0.0 mm
12:55 PM 77.2°F25.1°C 59.7°F15.4°C 55% 7.6 mph NW12.2 kmh NW 11.4 mph18.3 kmh 29.92 in1013.2 mb 0.00 in0.0 mm 0.00 in/hr0.0 mm/hr 0.00 in0.0 mm
12:50 PM 76.6°F24.8°C 59.7°F15.4°C 56% 6.9 mph W11.1 kmh W 9.8 mph15.8 kmh 29.92 in1013.2 mb 0.00 in0.0 mm 0.00 in/hr0.0 mm/hr 0.00 in0.0 mm
12:45 PM 76.1°F24.5°C 58.2°F14.6°C 54% 5.4 mph NNW8.7 kmh NNW 7.6 mph12.2 kmh 29.92 in1013.2 mb 0.00 in0.0 mm 0.00 in/hr0.0 mm/hr 0.00 in0.0 mm
12:40 PM 75.9°F24.4°C 58.1°F14.5°C 54% 6.9 mph NW11.1 kmh NW 9.8 mph15.8 kmh 29.92 in1013.2 mb 0.00 in0.0 mm 0.00 in/hr0.0 mm/hr 0.00 in0.0 mm
12:35 PM 76.1°F24.5°C 60.7°F15.9°C 59% 3.8 mph 6.1 kmh 5.4 mph8.7 kmh 29.91 in1012.9 mb 0.00 in0.0 mm 0.00 in/hr0.0 mm/hr 0.00 in0.0 mm
12:30 PM 75.7°F24.3°C 59.9°F15.5°C 58% 9.2 mph 14.8 kmh 11.4 mph18.3 kmh 29.91 in1012.9 mb 0.00 in0.0 mm 0.00 in/hr0.0 mm/hr 0.00 in0.0 mm
12:25 PM 75.0°F23.9°C 57.7°F14.3°C 55% 7.6 mph NW12.2 kmh NW 10.7 mph17.2 kmh 29.91 in1012.9 mb 0.00 in0.0 mm 0.00 in/hr0.0 mm/hr 0.00 in0.0 mm
12:20 PM 75.0°F23.9°C 58.2°F14.6°C 56% 5.4 mph 8.7 kmh 9.2 mph14.8 kmh 29.92 in1013.2 mb 0.00 in0.0 mm 0.00 in/hr0.0 mm/hr 0.00 in0.0 mm
12:15 PM 75.4°F24.1°C 60.5°F15.8°C 60% 6.0 mph NW9.7 kmh NW 8.3 mph13.4 kmh 29.92 in1013.2 mb 0.00 in0.0 mm 0.00 in/hr0.0 mm/hr 0.00 in0.0 mm
12:10 PM 75.6°F24.2°C 61.6°F16.4°C 62% 6.9 mph NW11.1 kmh NW 9.2 mph14.8 kmh 29.91 in1012.9 mb 0.00 in0.0 mm 0.00 in/hr0.0 mm/hr 0.00 in0.0 mm
12:05 PM 75.6°F24.2°C 62.5°F16.9°C 64% 3.8 mph WNW6.1 kmh WNW 6.0 mph9.7 kmh 29.91 in1012.9 mb 0.00 in0.0 mm 0.00 in/hr0.0 mm/hr 0.00 in0.0 mm
12:00 PM 75.0°F23.9°C 63.3°F17.4°C 67% 7.6 mph NW12.2 kmh NW 9.8 mph15.8 kmh 29.91 in1012.9 mb 0.00 in0.0 mm 0.00 in/hr0.0 mm/hr 0.00 in0.0 mm
11:55 AM 74.1°F23.4°C 62.4°F16.9°C 67% 10.7 mph NW17.2 kmh NW 15.9 mph25.6 kmh 29.92 in1013.2 mb 0.00 in0.0 mm 0.00 in/hr0.0 mm/hr 0.00 in0.0 mm
11:50 AM 73.8°F23.2°C 61.7°F16.5°C 66% 9.2 mph 14.8 kmh 13.6 mph21.9 kmh 29.92 in1013.2 mb 0.00 in0.0 mm 0.00 in/hr0.0 mm/hr 0.00 in0.0 mm
11:45 AM 74.5°F23.6°C 61.5°F16.4°C 64% 5.4 mph NW8.7 kmh NW 8.3 mph13.4 kmh 29.91 in1012.9 mb 0.00 in0.0 mm 0.00 in/hr0.0 mm/hr 0.00 in0.0 mm
11:40 AM 75.2°F24.0°C 61.3°F16.3°C 62% 7.6 mph NW12.2 kmh NW 9.2 mph14.8 kmh 29.91 in1012.9 mb 0.00 in0.0 mm 0.00 in/hr0.0 mm/hr 0.00 in0.0 mm
11:35 AM 75.0°F23.9°C 61.6°F16.4°C 63% 6.9 mph NW11.1 kmh NW 10.7 mph17.2 kmh 29.91 in1012.9 mb 0.00 in0.0 mm 0.00 in/hr0.0 mm/hr 0.00 in0.0 mm
11:30 AM 74.8°F23.8°C 61.4°F16.3°C 63% 5.4 mph NW8.7 kmh NW 9.2 mph14.8 kmh 29.91 in1012.9 mb 0.00 in0.0 mm 0.00 in/hr0.0 mm/hr 0.00 in0.0 mm
11:25 AM 75.0°F23.9°C 61.1°F16.2°C 62% 6.9 mph NW11.1 kmh NW 9.2 mph14.8 kmh 29.91 in1012.9 mb 0.00 in0.0 mm 0.00 in/hr0.0 mm/hr 0.00 in0.0 mm
11:20 AM 74.7°F23.7°C 62.1°F16.7°C 65% 6.0 mph WNW9.7 kmh WNW 9.2 mph14.8 kmh 29.91 in1012.9 mb 0.00 in0.0 mm 0.00 in/hr0.0 mm/hr 0.00 in0.0 mm
11:15 AM 74.1°F23.4°C 61.1°F16.2°C 64% 6.0 mph NW9.7 kmh NW 11.4 mph18.3 kmh 29.91 in1012.9 mb 0.00 in0.0 mm 0.00 in/hr0.0 mm/hr 0.00 in0.0 mm
11:10 AM 73.8°F23.2°C 61.2°F16.2°C 65% 3.8 mph WNW6.1 kmh WNW 6.9 mph11.1 kmh 29.91 in1012.9 mb 0.00 in0.0 mm 0.00 in/hr0.0 mm/hr 0.00 in0.0 mm
11:05 AM 73.8°F23.2°C 61.7°F16.5°C 66% 6.0 mph NW9.7 kmh NW 10.7 mph17.2 kmh 29.91 in1012.9 mb 0.00 in0.0 mm 0.00 in/hr0.0 mm/hr 0.00 in0.0 mm
11:00 AM 73.8°F23.2°C 61.7°F16.5°C 66% 6.0 mph NW9.7 kmh NW 10.7 mph17.2 kmh 29.91 in1012.9 mb 0.00 in0.0 mm 0.00 in/hr0.0 mm/hr 0.00 in0.0 mm
10:55 AM 73.8°F23.2°C 61.2°F16.2°C 65% 8.3 mph NW13.4 kmh NW 10.7 mph17.2 kmh 29.91 in1012.9 mb 0.00 in0.0 mm 0.00 in/hr0.0 mm/hr 0.00 in0.0 mm
10:50 AM 73.2°F22.9°C 58.9°F14.9°C 61% 6.0 mph NE9.7 kmh NE 8.3 mph13.4 kmh 29.90 in1012.5 mb 0.00 in0.0 mm 0.00 in/hr0.0 mm/hr 0.00 in0.0 mm
10:45 AM 73.0°F22.8°C 61.0°F16.1°C 66% 5.4 mph 8.7 kmh 6.9 mph11.1 kmh 29.91 in1012.9 mb 0.00 in0.0 mm 0.00 in/hr0.0 mm/hr 0.00 in0.0 mm
10:40 AM 72.9°F22.7°C 61.2°F16.2°C 67% 6.0 mph W9.7 kmh W 8.3 mph13.4 kmh 29.91 in1012.9 mb 0.00 in0.0 mm 0.00 in/hr0.0 mm/hr 0.00 in0.0 mm
10:35 AM 72.7°F22.6°C 60.7°F15.9°C 66% 7.6 mph NW12.2 kmh NW 9.8 mph15.8 kmh 29.90 in1012.5 mb 0.00 in0.0 mm 0.00 in/hr0.0 mm/hr 0.00 in0.0 mm
10:30 AM 72.3°F22.4°C 60.3°F15.7°C 66% 7.6 mph 12.2 kmh 10.7 mph17.2 kmh 29.90 in1012.5 mb 0.00 in0.0 mm 0.00 in/hr0.0 mm/hr 0.00 in0.0 mm
10:25 AM 72.0°F22.2°C 60.0°F15.6°C 66% 6.9 mph WNW11.1 kmh WNW 9.2 mph14.8 kmh 29.90 in1012.5 mb 0.00 in0.0 mm 0.00 in/hr0.0 mm/hr 0.00 in0.0 mm
10:20 AM 71.8°F22.1°C 60.2°F15.7°C 67% 7.6 mph 12.2 kmh 11.4 mph18.3 kmh 29.90 in1012.5 mb 0.00 in0.0 mm 0.00 in/hr0.0 mm/hr 0.00 in0.0 mm
10:15 AM 71.6°F22.0°C 60.9°F16.1°C 69% 6.0 mph NW9.7 kmh NW 9.8 mph15.8 kmh 29.90 in1012.5 mb 0.00 in0.0 mm 0.00 in/hr0.0 mm/hr 0.00 in0.0 mm
10:10 AM 71.1°F21.7°C 61.6°F16.4°C 72% 6.0 mph WNW9.7 kmh WNW 8.3 mph13.4 kmh 29.90 in1012.5 mb 0.00 in0.0 mm 0.00 in/hr0.0 mm/hr 0.00 in0.0 mm
10:05 AM 70.7°F21.5°C 61.2°F16.2°C 72% 6.9 mph 11.1 kmh 9.2 mph14.8 kmh 29.90 in1012.5 mb 0.00 in0.0 mm 0.00 in/hr0.0 mm/hr 0.00 in0.0 mm
10:00 AM 70.5°F21.4°C 61.0°F16.1°C 72% 3.8 mph WSW6.1 kmh WSW 7.6 mph12.2 kmh 29.90 in1012.5 mb 0.00 in0.0 mm 0.00 in/hr0.0 mm/hr 0.00 in0.0 mm
09:55 AM 70.5°F21.4°C 61.8°F16.6°C 74% 5.4 mph 8.7 kmh 6.9 mph11.1 kmh 29.90 in1012.5 mb 0.00 in0.0 mm 0.00 in/hr0.0 mm/hr 0.00 in0.0 mm
09:50 AM 70.3°F21.3°C 62.4°F16.9°C 76% 6.9 mph NW11.1 kmh NW 10.7 mph17.2 kmh 29.90 in1012.5 mb 0.00 in0.0 mm 0.00 in/hr0.0 mm/hr 0.00 in0.0 mm
09:45 AM 70.2°F21.2°C 62.2°F16.8°C 76% 7.6 mph W12.2 kmh W 9.8 mph15.8 kmh 29.90 in1012.5 mb 0.00 in0.0 mm 0.00 in/hr0.0 mm/hr 0.00 in0.0 mm
09:40 AM 70.0°F21.1°C 62.1°F16.7°C 76% 6.0 mph NW9.7 kmh NW 8.3 mph13.4 kmh 29.90 in1012.5 mb 0.00 in0.0 mm 0.00 in/hr0.0 mm/hr 0.00 in0.0 mm
09:35 AM 69.8°F21.0°C 61.9°F16.6°C 76% 6.0 mph WNW9.7 kmh WNW 9.8 mph15.8 kmh 29.90 in1012.5 mb 0.00 in0.0 mm 0.00 in/hr0.0 mm/hr 0.00 in0.0 mm
09:30 AM 69.6°F20.9°C 62.8°F17.1°C 79% 6.9 mph 11.1 kmh 9.2 mph14.8 kmh 29.90 in1012.5 mb 0.00 in0.0 mm 0.00 in/hr0.0 mm/hr 0.00 in0.0 mm
09:25 AM 69.4°F20.8°C 62.6°F17.0°C 79% 6.0 mph NW9.7 kmh NW 9.2 mph14.8 kmh 29.90 in1012.5 mb 0.00 in0.0 mm 0.00 in/hr0.0 mm/hr 0.00 in0.0 mm
09:20 AM 69.4°F20.8°C 63.3°F17.4°C 81% 6.9 mph 11.1 kmh 11.4 mph18.3 kmh 29.90 in1012.5 mb 0.00 in0.0 mm 0.00 in/hr0.0 mm/hr 0.00 in0.0 mm
09:15 AM 69.1°F20.6°C 63.0°F17.2°C 81% 5.4 mph 8.7 kmh 9.8 mph15.8 kmh 29.90 in1012.5 mb 0.00 in0.0 mm 0.00 in/hr0.0 mm/hr 0.00 in0.0 mm
09:10 AM 68.7°F20.4°C 63.0°F17.2°C 82% 5.4 mph NW8.7 kmh NW 9.2 mph14.8 kmh 29.90 in1012.5 mb 0.00 in0.0 mm 0.00 in/hr0.0 mm/hr 0.00 in0.0 mm
09:05 AM 68.5°F20.3°C 63.5°F17.5°C 84% 6.9 mph 11.1 kmh 9.2 mph14.8 kmh 29.90 in1012.5 mb 0.00 in0.0 mm 0.00 in/hr0.0 mm/hr 0.00 in0.0 mm
09:00 AM 68.5°F20.3°C 63.5°F17.5°C 84% 6.9 mph 11.1 kmh 9.2 mph14.8 kmh 29.90 in1012.5 mb 0.00 in0.0 mm 0.00 in/hr0.0 mm/hr 0.00 in0.0 mm
08:55 AM 68.4°F20.2°C 63.7°F17.6°C 85% 7.6 mph WNW12.2 kmh WNW 9.2 mph14.8 kmh 29.90 in1012.5 mb 0.00 in0.0 mm 0.00 in/hr0.0 mm/hr 0.00 in0.0 mm
08:50 AM 68.0°F20.0°C 63.3°F17.4°C 85% 9.2 mph NW14.8 kmh NW 11.4 mph18.3 kmh 29.90 in1012.5 mb 0.00 in0.0 mm 0.00 in/hr0.0 mm/hr 0.00 in0.0 mm
08:45 AM 67.6°F19.8°C 63.6°F17.6°C 87% 6.0 mph NW9.7 kmh NW 9.2 mph14.8 kmh 29.90 in1012.5 mb 0.00 in0.0 mm 0.00 in/hr0.0 mm/hr 0.00 in0.0 mm
08:40 AM 67.3°F19.6°C 63.3°F17.4°C 87% 6.9 mph WNW11.1 kmh WNW 9.2 mph14.8 kmh 29.90 in1012.5 mb 0.00 in0.0 mm 0.00 in/hr0.0 mm/hr 0.00 in0.0 mm
08:35 AM 66.9°F19.4°C 63.2°F17.3°C 88% 6.0 mph WNW9.7 kmh WNW 9.2 mph14.8 kmh 29.90 in1012.5 mb 0.00 in0.0 mm 0.00 in/hr0.0 mm/hr 0.00 in0.0 mm
08:30 AM 66.4°F19.1°C 62.7°F17.1°C 88% 3.8 mph 6.1 kmh 5.4 mph8.7 kmh 29.90 in1012.5 mb 0.00 in0.0 mm 0.00 in/hr0.0 mm/hr 0.00 in0.0 mm
08:25 AM 66.2°F19.0°C 62.5°F16.9°C 88% 5.4 mph 8.7 kmh 9.2 mph14.8 kmh 29.89 in1012.2 mb 0.00 in0.0 mm 0.00 in/hr0.0 mm/hr 0.00 in0.0 mm
08:20 AM 66.2°F19.0°C 62.5°F16.9°C 88% 5.4 mph 8.7 kmh 7.6 mph12.2 kmh 29.90 in1012.5 mb 0.00 in0.0 mm 0.00 in/hr0.0 mm/hr 0.00 in0.0 mm
08:15 AM 66.4°F19.1°C 62.7°F17.1°C 88% 6.9 mph 11.1 kmh 9.8 mph15.8 kmh 29.90 in1012.5 mb 0.00 in0.0 mm 0.00 in/hr0.0 mm/hr 0.00 in0.0 mm
08:10 AM 66.4°F19.1°C 62.7°F17.1°C 88% 4.5 mph WNW7.2 kmh WNW 8.3 mph13.4 kmh 29.89 in1012.2 mb 0.00 in0.0 mm 0.00 in/hr0.0 mm/hr 0.00 in0.0 mm
08:05 AM 66.6°F19.2°C 62.9°F17.2°C 88% 6.0 mph WNW9.7 kmh WNW 9.2 mph14.8 kmh 29.89 in1012.2 mb 0.00 in0.0 mm 0.00 in/hr0.0 mm/hr 0.00 in0.0 mm
08:00 AM 66.6°F19.2°C 63.2°F17.3°C 89% 5.4 mph 8.7 kmh 8.3 mph13.4 kmh 29.89 in1012.2 mb 0.00 in0.0 mm 0.00 in/hr0.0 mm/hr 0.00 in0.0 mm
07:55 AM 66.6°F19.2°C 63.5°F17.5°C 90% 3.8 mph NW6.1 kmh NW 5.4 mph8.7 kmh 29.89 in1012.2 mb 0.00 in0.0 mm 0.00 in/hr0.0 mm/hr 0.00 in0.0 mm
07:50 AM 66.4°F19.1°C 63.4°F17.4°C 90% 6.0 mph SW9.7 kmh SW 7.6 mph12.2 kmh 29.89 in1012.2 mb 0.00 in0.0 mm 0.00 in/hr0.0 mm/hr 0.00 in0.0 mm
07:45 AM 66.2°F19.0°C 63.5°F17.5°C 91% 6.0 mph NW9.7 kmh NW 7.6 mph12.2 kmh 29.88 in1011.9 mb 0.00 in0.0 mm 0.00 in/hr0.0 mm/hr 0.00 in0.0 mm
07:40 AM 66.0°F18.9°C 63.6°F17.6°C 92% 5.4 mph NW8.7 kmh NW 7.6 mph12.2 kmh 29.88 in1011.9 mb 0.00 in0.0 mm 0.00 in/hr0.0 mm/hr 0.00 in0.0 mm
07:35 AM 65.8°F18.8°C 63.4°F17.4°C 92% 3.1 mph NW5.0 kmh NW 5.4 mph8.7 kmh 29.88 in1011.9 mb 0.00 in0.0 mm 0.00 in/hr0.0 mm/hr 0.00 in0.0 mm
07:30 AM 65.8°F18.8°C 63.4°F17.4°C 92% 7.6 mph WNW12.2 kmh WNW 9.2 mph14.8 kmh 29.88 in1011.9 mb 0.00 in0.0 mm 0.00 in/hr0.0 mm/hr 0.00 in0.0 mm
07:25 AM 65.8°F18.8°C 63.4°F17.4°C 92% 3.8 mph NW6.1 kmh NW 6.0 mph9.7 kmh 29.88 in1011.9 mb 0.00 in0.0 mm 0.00 in/hr0.0 mm/hr 0.00 in0.0 mm
07:20 AM 65.8°F18.8°C 63.8°F17.7°C 93% 5.4 mph WNW8.7 kmh WNW 8.3 mph13.4 kmh 29.88 in1011.9 mb 0.00 in0.0 mm 0.00 in/hr0.0 mm/hr 0.00 in0.0 mm
07:15 AM 65.8°F18.8°C 63.8°F17.7°C 93% 6.0 mph W9.7 kmh W 9.2 mph14.8 kmh 29.88 in1011.9 mb 0.00 in0.0 mm 0.00 in/hr0.0 mm/hr 0.00 in0.0 mm
07:10 AM 65.7°F18.7°C 63.9°F17.7°C 94% 3.8 mph W6.1 kmh W 6.9 mph11.1 kmh 29.88 in1011.9 mb 0.00 in0.0 mm 0.00 in/hr0.0 mm/hr 0.00 in0.0 mm
07:05 AM 65.3°F18.5°C 63.5°F17.5°C 94% 6.0 mph 9.7 kmh 7.6 mph12.2 kmh 29.87 in1011.5 mb 0.00 in0.0 mm 0.00 in/hr0.0 mm/hr 0.00 in0.0 mm
07:00 AM 65.3°F18.5°C 63.5°F17.5°C 94% 6.0 mph 9.7 kmh 7.6 mph12.2 kmh 29.87 in1011.5 mb 0.00 in0.0 mm 0.00 in/hr0.0 mm/hr 0.00 in0.0 mm
06:55 AM 65.1°F18.4°C 63.3°F17.4°C 94% 3.8 mph W6.1 kmh W 5.4 mph8.7 kmh 29.88 in1011.9 mb 0.00 in0.0 mm 0.00 in/hr0.0 mm/hr 0.00 in0.0 mm
06:50 AM 65.1°F18.4°C 63.6°F17.6°C 95% 4.5 mph WNW7.2 kmh WNW 7.6 mph12.2 kmh 29.88 in1011.9 mb 0.00 in0.0 mm 0.00 in/hr0.0 mm/hr 0.00 in0.0 mm
06:45 AM 65.1°F18.4°C 63.6°F17.6°C 95% 6.0 mph NW9.7 kmh NW 6.9 mph11.1 kmh 29.87 in1011.5 mb 0.00 in0.0 mm 0.00 in/hr0.0 mm/hr 0.00 in0.0 mm
06:40 AM 64.9°F18.3°C 63.5°F17.5°C 95% 4.5 mph NW7.2 kmh NW 6.0 mph9.7 kmh 29.87 in1011.5 mb 0.00 in0.0 mm 0.00 in/hr0.0 mm/hr 0.00 in0.0 mm
06:35 AM 64.9°F18.3°C 63.5°F17.5°C 95% 6.9 mph NW11.1 kmh NW 8.3 mph13.4 kmh 29.87 in1011.5 mb 0.00 in0.0 mm 0.00 in/hr0.0 mm/hr 0.00 in0.0 mm
06:30 AM 64.9°F18.3°C 63.5°F17.5°C 95% 4.5 mph W7.2 kmh W 6.9 mph11.1 kmh 29.87 in1011.5 mb 0.00 in0.0 mm 0.00 in/hr0.0 mm/hr 0.00 in0.0 mm
06:25 AM 64.9°F18.3°C 63.5°F17.5°C 95% 4.5 mph 7.2 kmh 8.3 mph13.4 kmh 29.87 in1011.5 mb 0.00 in0.0 mm 0.00 in/hr0.0 mm/hr 0.00 in0.0 mm
06:20 AM 64.8°F18.2°C 63.3°F17.4°C 95% 4.5 mph NW7.2 kmh NW 7.6 mph12.2 kmh 29.87 in1011.5 mb 0.00 in0.0 mm 0.00 in/hr0.0 mm/hr 0.00 in0.0 mm
06:15 AM 64.8°F18.2°C 63.3°F17.4°C 95% 5.4 mph W8.7 kmh W 6.0 mph9.7 kmh 29.87 in1011.5 mb 0.00 in0.0 mm 0.00 in/hr0.0 mm/hr 0.00 in0.0 mm
06:10 AM 64.9°F18.3°C 63.5°F17.5°C 95% 4.5 mph NW7.2 kmh NW 6.0 mph9.7 kmh 29.87 in1011.5 mb 0.00 in0.0 mm 0.00 in/hr0.0 mm/hr 0.00 in0.0 mm
06:05 AM 64.9°F18.3°C 63.5°F17.5°C 95% 4.5 mph NW7.2 kmh NW 6.9 mph11.1 kmh 29.87 in1011.5 mb 0.00 in0.0 mm 0.00 in/hr0.0 mm/hr 0.00 in0.0 mm
06:00 AM 64.9°F18.3°C 63.5°F17.5°C 95% 5.4 mph W8.7 kmh W 7.6 mph12.2 kmh 29.87 in1011.5 mb 0.00 in0.0 mm 0.00 in/hr0.0 mm/hr 0.00 in0.0 mm
05:55 AM 64.9°F18.3°C 63.5°F17.5°C 95% 6.0 mph NW9.7 kmh NW 8.3 mph13.4 kmh 29.87 in1011.5 mb 0.00 in0.0 mm 0.00 in/hr0.0 mm/hr 0.00 in0.0 mm
05:50 AM 64.9°F18.3°C 63.5°F17.5°C 95% 3.8 mph NW6.1 kmh NW 6.0 mph9.7 kmh 29.87 in1011.5 mb 0.00 in0.0 mm 0.00 in/hr0.0 mm/hr 0.00 in0.0 mm
05:45 AM 65.1°F18.4°C 63.6°F17.6°C 95% 4.5 mph NW7.2 kmh NW 7.6 mph12.2 kmh 29.87 in1011.5 mb 0.00 in0.0 mm 0.00 in/hr0.0 mm/hr 0.00 in0.0 mm
05:40 AM 65.1°F18.4°C 63.6°F17.6°C 95% 7.6 mph NNW12.2 kmh NNW 9.8 mph15.8 kmh 29.86 in1011.2 mb 0.00 in0.0 mm 0.00 in/hr0.0 mm/hr 0.00 in0.0 mm
05:35 AM 65.3°F18.5°C 63.8°F17.7°C 95% 3.1 mph NW5.0 kmh NW 6.0 mph9.7 kmh 29.86 in1011.2 mb 0.00 in0.0 mm 0.00 in/hr0.0 mm/hr 0.00 in0.0 mm
05:30 AM 65.3°F18.5°C 63.5°F17.5°C 94% 6.0 mph NW9.7 kmh NW 9.2 mph14.8 kmh 29.86 in1011.2 mb 0.00 in0.0 mm 0.00 in/hr0.0 mm/hr 0.00 in0.0 mm
05:25 AM 65.3°F18.5°C 63.5°F17.5°C 94% 6.0 mph NW9.7 kmh NW 8.3 mph13.4 kmh 29.86 in1011.2 mb 0.00 in0.0 mm 0.00 in/hr0.0 mm/hr 0.00 in0.0 mm
05:20 AM 65.3°F18.5°C 63.5°F17.5°C 94% 6.9 mph NW11.1 kmh NW 9.8 mph15.8 kmh 29.86 in1011.2 mb 0.00 in0.0 mm 0.00 in/hr0.0 mm/hr 0.00 in0.0 mm
05:15 AM 65.3°F18.5°C 63.8°F17.7°C 95% 6.9 mph 11.1 kmh 11.4 mph18.3 kmh 29.86 in1011.2 mb 0.00 in0.0 mm 0.00 in/hr0.0 mm/hr 0.00 in0.0 mm
05:10 AM 65.3°F18.5°C 63.8°F17.7°C 95% 4.5 mph NW7.2 kmh NW 6.0 mph9.7 kmh 29.86 in1011.2 mb 0.00 in0.0 mm 0.00 in/hr0.0 mm/hr 0.00 in0.0 mm
05:05 AM 65.5°F18.6°C 64.0°F17.8°C 95% 5.4 mph 8.7 kmh 6.9 mph11.1 kmh 29.85 in1010.8 mb 0.00 in0.0 mm 0.00 in/hr0.0 mm/hr 0.00 in0.0 mm
05:00 AM 65.5°F18.6°C 64.0°F17.8°C 95% 5.4 mph 8.7 kmh 6.9 mph11.1 kmh 29.85 in1010.8 mb 0.00 in0.0 mm 0.00 in/hr0.0 mm/hr 0.00 in0.0 mm
04:55 AM 65.5°F18.6°C 63.7°F17.6°C 94% 6.0 mph SW9.7 kmh SW 8.3 mph13.4 kmh 29.85 in1010.8 mb 0.00 in0.0 mm 0.00 in/hr0.0 mm/hr 0.00 in0.0 mm
04:50 AM 65.5°F18.6°C 63.7°F17.6°C 94% 3.1 mph 5.0 kmh 4.5 mph7.2 kmh 29.84 in1010.5 mb 0.00 in0.0 mm 0.00 in/hr0.0 mm/hr 0.00 in0.0 mm
04:45 AM 65.5°F18.6°C 63.7°F17.6°C 94% 4.5 mph NNW7.2 kmh NNW 6.0 mph9.7 kmh 29.85 in1010.8 mb 0.00 in0.0 mm 0.00 in/hr0.0 mm/hr 0.00 in0.0 mm
04:40 AM 65.5°F18.6°C 63.7°F17.6°C 94% 6.9 mph 11.1 kmh 9.2 mph14.8 kmh 29.85 in1010.8 mb 0.00 in0.0 mm 0.00 in/hr0.0 mm/hr 0.00 in0.0 mm
04:35 AM 65.5°F18.6°C 64.0°F17.8°C 95% 6.0 mph 9.7 kmh 8.3 mph13.4 kmh 29.84 in1010.5 mb 0.00 in0.0 mm 0.00 in/hr0.0 mm/hr 0.00 in0.0 mm
04:30 AM 65.7°F18.7°C 64.2°F17.9°C 95% 5.4 mph 8.7 kmh 9.2 mph14.8 kmh 29.85 in1010.8 mb 0.00 in0.0 mm 0.00 in/hr0.0 mm/hr 0.00 in0.0 mm
04:25 AM 65.7°F18.7°C 64.2°F17.9°C 95% 5.4 mph NW8.7 kmh NW 7.6 mph12.2 kmh 29.84 in1010.5 mb 0.00 in0.0 mm 0.00 in/hr0.0 mm/hr 0.00 in0.0 mm
04:20 AM 65.7°F18.7°C 64.2°F17.9°C 95% 6.0 mph NW9.7 kmh NW 9.2 mph14.8 kmh 29.84 in1010.5 mb 0.00 in0.0 mm 0.00 in/hr0.0 mm/hr 0.00 in0.0 mm
04:15 AM 65.7°F18.7°C 64.2°F17.9°C 95% 5.4 mph W8.7 kmh W 7.6 mph12.2 kmh 29.84 in1010.5 mb 0.00 in0.0 mm 0.00 in/hr0.0 mm/hr 0.00 in0.0 mm
04:10 AM 65.8°F18.8°C 64.4°F18.0°C 95% 5.4 mph NW8.7 kmh NW 7.6 mph12.2 kmh 29.84 in1010.5 mb 0.00 in0.0 mm 0.00 in/hr0.0 mm/hr 0.00 in0.0 mm
04:05 AM 65.8°F18.8°C 64.4°F18.0°C 95% 5.4 mph NW8.7 kmh NW 8.3 mph13.4 kmh 29.84 in1010.5 mb 0.00 in0.0 mm 0.00 in/hr0.0 mm/hr 0.00 in0.0 mm
04:00 AM 65.8°F18.8°C 64.4°F18.0°C 95% 6.0 mph WNW9.7 kmh WNW 8.3 mph13.4 kmh 29.84 in1010.5 mb 0.00 in0.0 mm 0.00 in/hr0.0 mm/hr 0.00 in0.0 mm
03:55 AM 65.8°F18.8°C 64.4°F18.0°C 95% 5.4 mph NW8.7 kmh NW 7.6 mph12.2 kmh 29.83 in1010.2 mb 0.00 in0.0 mm 0.00 in/hr0.0 mm/hr 0.00 in0.0 mm
03:50 AM 65.8°F18.8°C 64.4°F18.0°C 95% 9.2 mph NW14.8 kmh NW 13.0 mph20.9 kmh 29.83 in1010.2 mb 0.00 in0.0 mm 0.00 in/hr0.0 mm/hr 0.00 in0.0 mm
03:45 AM 66.2°F19.0°C 64.4°F18.0°C 94% 6.0 mph NW9.7 kmh NW 9.2 mph14.8 kmh 29.83 in1010.2 mb 0.00 in0.0 mm 0.00 in/hr0.0 mm/hr 0.00 in0.0 mm
03:40 AM 66.2°F19.0°C 64.4°F18.0°C 94% 6.9 mph 11.1 kmh 9.2 mph14.8 kmh 29.83 in1010.2 mb 0.00 in0.0 mm 0.00 in/hr0.0 mm/hr 0.00 in0.0 mm
03:35 AM 66.2°F19.0°C 64.4°F18.0°C 94% 5.4 mph NW8.7 kmh NW 7.6 mph12.2 kmh 29.83 in1010.2 mb 0.00 in0.0 mm 0.00 in/hr0.0 mm/hr 0.00 in0.0 mm
03:30 AM 66.4°F19.1°C 64.6°F18.1°C 94% 6.9 mph 11.1 kmh 12.1 mph19.5 kmh 29.83 in1010.2 mb 0.00 in0.0 mm 0.00 in/hr0.0 mm/hr 0.00 in0.0 mm
03:25 AM 66.6°F19.2°C 64.8°F18.2°C 94% 6.9 mph NW11.1 kmh NW 9.8 mph15.8 kmh 29.82 in1009.8 mb 0.00 in0.0 mm 0.00 in/hr0.0 mm/hr 0.00 in0.0 mm
03:20 AM 66.6°F19.2°C 64.8°F18.2°C 94% 7.6 mph NW12.2 kmh NW 9.8 mph15.8 kmh 29.83 in1010.2 mb 0.00 in0.0 mm 0.00 in/hr0.0 mm/hr 0.00 in0.0 mm
03:15 AM 66.7°F19.3°C 65.0°F18.3°C 94% 5.4 mph NW8.7 kmh NW 7.6 mph12.2 kmh 29.83 in1010.2 mb 0.00 in0.0 mm 0.00 in/hr0.0 mm/hr 0.00 in0.0 mm
03:10 AM 66.9°F19.4°C 65.1°F18.4°C 94% 6.0 mph WNW9.7 kmh WNW 8.3 mph13.4 kmh 29.83 in1010.2 mb 0.00 in0.0 mm 0.00 in/hr0.0 mm/hr 0.00 in0.0 mm
03:05 AM 67.1°F19.5°C 65.3°F18.5°C 94% 3.8 mph NW6.1 kmh NW 6.0 mph9.7 kmh 29.83 in1010.2 mb 0.00 in0.0 mm 0.00 in/hr0.0 mm/hr 0.00 in0.0 mm
03:00 AM 67.1°F19.5°C 65.3°F18.5°C 94% 3.8 mph NW6.1 kmh NW 6.0 mph9.7 kmh 29.83 in1010.2 mb 0.00 in0.0 mm 0.00 in/hr0.0 mm/hr 0.00 in0.0 mm
02:55 AM 67.3°F19.6°C 65.5°F18.6°C 94% 6.0 mph WNW9.7 kmh WNW 8.3 mph13.4 kmh 29.82 in1009.8 mb 0.00 in0.0 mm 0.00 in/hr0.0 mm/hr 0.00 in0.0 mm
02:50 AM 67.5°F19.7°C 65.7°F18.7°C 94% 5.4 mph NW8.7 kmh NW 9.2 mph14.8 kmh 29.82 in1009.8 mb 0.00 in0.0 mm 0.00 in/hr0.0 mm/hr 0.00 in0.0 mm
02:45 AM 67.5°F19.7°C 65.7°F18.7°C 94% 5.4 mph 8.7 kmh 7.6 mph12.2 kmh 29.82 in1009.8 mb 0.00 in0.0 mm 0.00 in/hr0.0 mm/hr 0.00 in0.0 mm
02:40 AM 67.6°F19.8°C 65.8°F18.8°C 94% 7.6 mph 12.2 kmh 10.7 mph17.2 kmh 29.82 in1009.8 mb 0.00 in0.0 mm 0.00 in/hr0.0 mm/hr 0.00 in0.0 mm
02:35 AM 67.6°F19.8°C 65.5°F18.6°C 93% 6.9 mph NW11.1 kmh NW 9.2 mph14.8 kmh 29.82 in1009.8 mb 0.00 in0.0 mm 0.00 in/hr0.0 mm/hr 0.00 in0.0 mm
02:30 AM 68.0°F20.0°C 65.6°F18.7°C 92% 6.0 mph NE9.7 kmh NE 9.8 mph15.8 kmh 29.82 in1009.8 mb 0.00 in0.0 mm 0.00 in/hr0.0 mm/hr 0.00 in0.0 mm
02:25 AM 68.0°F20.0°C 65.6°F18.7°C 92% 6.0 mph NNW9.7 kmh NNW 9.2 mph14.8 kmh 29.82 in1009.8 mb 0.00 in0.0 mm 0.00 in/hr0.0 mm/hr 0.00 in0.0 mm
02:20 AM 68.0°F20.0°C 65.6°F18.7°C 92% 6.0 mph 9.7 kmh 8.3 mph13.4 kmh 29.83 in1010.2 mb 0.00 in0.0 mm 0.00 in/hr0.0 mm/hr 0.00 in0.0 mm
02:15 AM 68.2°F20.1°C 65.8°F18.8°C 92% 3.8 mph NW6.1 kmh NW 5.4 mph8.7 kmh 29.83 in1010.2 mb 0.00 in0.0 mm 0.00 in/hr0.0 mm/hr 0.00 in0.0 mm
02:10 AM 68.2°F20.1°C 65.4°F18.6°C 91% 5.4 mph NE8.7 kmh NE 9.2 mph14.8 kmh 29.83 in1010.2 mb 0.00 in0.0 mm 0.00 in/hr0.0 mm/hr 0.00 in0.0 mm
02:05 AM 68.2°F20.1°C 65.4°F18.6°C 91% 5.4 mph 8.7 kmh 8.3 mph13.4 kmh 29.83 in1010.2 mb 0.00 in0.0 mm 0.00 in/hr0.0 mm/hr 0.00 in0.0 mm
02:00 AM 68.2°F20.1°C 65.4°F18.6°C 91% 6.0 mph 9.7 kmh 8.3 mph13.4 kmh 29.83 in1010.2 mb 0.00 in0.0 mm 0.00 in/hr0.0 mm/hr 0.00 in0.0 mm
01:55 AM 68.4°F20.2°C 65.3°F18.5°C 90% 5.4 mph NW8.7 kmh NW 7.6 mph12.2 kmh 29.83 in1010.2 mb 0.00 in0.0 mm 0.00 in/hr0.0 mm/hr 0.00 in0.0 mm
01:50 AM 68.4°F20.2°C 65.3°F18.5°C 90% 9.2 mph 14.8 kmh 12.1 mph19.5 kmh 29.82 in1009.8 mb 0.00 in0.0 mm 0.00 in/hr0.0 mm/hr 0.00 in0.0 mm
01:45 AM 68.4°F20.2°C 65.3°F18.5°C 90% 7.6 mph NW12.2 kmh NW 10.7 mph17.2 kmh 29.83 in1010.2 mb 0.00 in0.0 mm 0.00 in/hr0.0 mm/hr 0.00 in0.0 mm
01:40 AM 68.5°F20.3°C 65.5°F18.6°C 90% 6.9 mph WNW11.1 kmh WNW 10.7 mph17.2 kmh 29.83 in1010.2 mb 0.00 in0.0 mm 0.00 in/hr0.0 mm/hr 0.00 in0.0 mm
01:35 AM 68.7°F20.4°C 65.7°F18.7°C 90% 9.8 mph 15.8 kmh 13.6 mph21.9 kmh 29.83 in1010.2 mb 0.00 in0.0 mm 0.00 in/hr0.0 mm/hr 0.00 in0.0 mm
01:30 AM 68.7°F20.4°C 65.7°F18.7°C 90% 9.2 mph 14.8 kmh 13.0 mph20.9 kmh 29.83 in1010.2 mb 0.00 in0.0 mm 0.00 in/hr0.0 mm/hr 0.00 in0.0 mm
01:25 AM 68.9°F20.5°C 66.2°F19.0°C 91% 8.3 mph 13.4 kmh 11.4 mph18.3 kmh 29.83 in1010.2 mb 0.00 in0.0 mm 0.00 in/hr0.0 mm/hr 0.00 in0.0 mm
01:20 AM 68.9°F20.5°C 66.2°F19.0°C 91% 3.1 mph 5.0 kmh 5.4 mph8.7 kmh 29.82 in1009.8 mb 0.00 in0.0 mm 0.00 in/hr0.0 mm/hr 0.00 in0.0 mm
01:15 AM 68.9°F20.5°C 66.2°F19.0°C 91% 6.9 mph 11.1 kmh 9.8 mph15.8 kmh 29.83 in1010.2 mb 0.00 in0.0 mm 0.00 in/hr0.0 mm/hr 0.00 in0.0 mm
01:10 AM 69.1°F20.6°C 66.3°F19.1°C 91% 6.9 mph NW11.1 kmh NW 9.8 mph15.8 kmh 29.83 in1010.2 mb 0.00 in0.0 mm 0.00 in/hr0.0 mm/hr 0.00 in0.0 mm
01:05 AM 69.1°F20.6°C 66.3°F19.1°C 91% 3.8 mph 6.1 kmh 6.0 mph9.7 kmh 29.83 in1010.2 mb 0.00 in0.0 mm 0.00 in/hr0.0 mm/hr 0.00 in0.0 mm
01:00 AM 69.1°F20.6°C 66.3°F19.1°C 91% 3.8 mph 6.1 kmh 6.0 mph9.7 kmh 29.83 in1010.2 mb 0.00 in0.0 mm 0.00 in/hr0.0 mm/hr 0.00 in0.0 mm
12:55 AM 69.1°F20.6°C 66.3°F19.1°C 91% 4.5 mph NW7.2 kmh NW 6.9 mph11.1 kmh 29.83 in1010.2 mb 0.00 in0.0 mm 0.00 in/hr0.0 mm/hr 0.00 in0.0 mm
12:50 AM 69.1°F20.6°C 66.0°F18.9°C 90% 3.1 mph W5.0 kmh W 5.4 mph8.7 kmh 29.83 in1010.2 mb 0.00 in0.0 mm 0.00 in/hr0.0 mm/hr 0.00 in0.0 mm
12:45 AM 69.1°F20.6°C 66.0°F18.9°C 90% 3.8 mph 6.1 kmh 8.3 mph13.4 kmh 29.83 in1010.2 mb 0.00 in0.0 mm 0.00 in/hr0.0 mm/hr 0.00 in0.0 mm
12:40 AM 69.1°F20.6°C 66.3°F19.1°C 91% 6.9 mph NE11.1 kmh NE 9.2 mph14.8 kmh 29.83 in1010.2 mb 0.00 in0.0 mm 0.00 in/hr0.0 mm/hr 0.00 in0.0 mm
12:35 AM 69.1°F20.6°C 66.7°F19.3°C 92% 7.6 mph NW12.2 kmh NW 10.7 mph17.2 kmh 29.83 in1010.2 mb 0.00 in0.0 mm 0.00 in/hr0.0 mm/hr 0.00 in0.0 mm
12:30 AM 68.9°F20.5°C 66.8°F19.3°C 93% 5.4 mph WNW8.7 kmh WNW 11.4 mph18.3 kmh 29.83 in1010.2 mb 0.00 in0.0 mm 0.00 in/hr0.0 mm/hr 0.00 in0.0 mm
12:25 AM 68.7°F20.4°C 66.9°F19.4°C 94% 6.0 mph 9.7 kmh 9.2 mph14.8 kmh 29.82 in1009.8 mb 0.00 in0.0 mm 0.00 in/hr0.0 mm/hr 0.00 in0.0 mm
12:20 AM 68.7°F20.4°C 66.9°F19.4°C 94% 4.5 mph 7.2 kmh 6.9 mph11.1 kmh 29.83 in1010.2 mb 0.00 in0.0 mm 0.00 in/hr0.0 mm/hr 0.00 in0.0 mm
12:15 AM 68.7°F20.4°C 66.9°F19.4°C 94% 2.2 mph W3.5 kmh W 3.1 mph5.0 kmh 29.82 in1009.8 mb 0.00 in0.0 mm 0.00 in/hr0.0 mm/hr 0.00 in0.0 mm
12:10 AM 68.7°F20.4°C 66.6°F19.2°C 93% Calm Calm 2.2 mph3.5 kmh 29.83 in1010.2 mb 0.00 in0.0 mm 0.00 in/hr0.0 mm/hr 0.00 in0.0 mm
12:05 AM 68.7°F20.4°C 66.6°F19.2°C 93% Calm Calm 0.7 mph1.1 kmh 29.83 in1010.2 mb 0.00 in0.0 mm 0.00 in/hr0.0 mm/hr 0.00 in0.0 mm
12:00 AM 68.7°F20.4°C 66.6°F19.2°C 93% Calm Calm 0.7 mph1.1 kmh 29.83 in1010.2 mb 0.00 in0.0 mm 0.00 in/hr0.0 mm/hr 0.00 in0.0 mm